<?xml version='1.0' encoding='UTF-8'?><gpx version="1.1" creator="JPX - https://github.com/jenetics/jpx" xmlns="http://www.topografix.com/GPX/1/1"><trk><trkseg><trkpt lat="37.1417451" lon="15.0335484"><ele>278.99999999999994</ele><time>2026-04-11T09:03:13.873Z</time></trkpt><trkpt lat="37.1417646" lon="15.0334633"><ele>279.0</ele><time>2026-04-11T09:03:18.812Z</time></trkpt><trkpt lat="37.141826" lon="15.0334279"><ele>279.0</ele><time>2026-04-11T09:03:26.873Z</time></trkpt><trkpt lat="37.1418334" lon="15.033341"><ele>279.0</ele><time>2026-04-11T09:03:35.921Z</time></trkpt><trkpt lat="37.1418911" lon="15.0332829"><ele>279.0</ele><time>2026-04-11T09:03:42.913Z</time></trkpt><trkpt lat="37.1419502" lon="15.0332552"><ele>278.99999999999994</ele><time>2026-04-11T09:03:56.929Z</time></trkpt><trkpt lat="37.1420075" lon="15.0332159"><ele>279.0</ele><time>2026-04-11T09:04:03.898Z</time></trkpt><trkpt lat="37.1420628" lon="15.0331741"><ele>275.2857142857143</ele><time>2026-04-11T09:04:11.906Z</time></trkpt><trkpt lat="37.1421098" lon="15.0331083"><ele>271.57142857142856</ele><time>2026-04-11T09:04:22.929Z</time></trkpt><trkpt lat="37.1421489" lon="15.0330448"><ele>267.8571428571429</ele><time>2026-04-11T09:04:27.921Z</time></trkpt><trkpt lat="37.1421736" lon="15.0329717"><ele>264.1428571428571</ele><time>2026-04-11T09:04:32.913Z</time></trkpt><trkpt lat="37.1422083" lon="15.0328938"><ele>260.42857142857144</ele><time>2026-04-11T09:04:40.921Z</time></trkpt><trkpt lat="37.1422402" lon="15.0328209"><ele>256.7142857142857</ele><time>2026-04-11T09:04:47.89Z</time></trkpt><trkpt lat="37.1422503" lon="15.0327395"><ele>253.00000000000003</ele><time>2026-04-11T09:04:59.932Z</time></trkpt><trkpt lat="37.1422793" lon="15.0326583"><ele>253.00000000000003</ele><time>2026-04-11T09:05:07.452Z</time></trkpt><trkpt lat="37.142326" lon="15.0325937"><ele>253.0</ele><time>2026-04-11T09:05:13.89Z</time></trkpt><trkpt lat="37.1423584" lon="15.0325077"><ele>253.00000000000003</ele><time>2026-04-11T09:05:20.863Z</time></trkpt><trkpt lat="37.1423904" lon="15.0324317"><ele>253.00000000000003</ele><time>2026-04-11T09:05:29.871Z</time></trkpt><trkpt lat="37.1423924" lon="15.032346"><ele>253.0</ele><time>2026-04-11T09:05:40.996Z</time></trkpt><trkpt lat="37.1424101" lon="15.0322576"><ele>253.00000000000003</ele><time>2026-04-11T09:05:55.331Z</time></trkpt><trkpt lat="37.1424238" lon="15.0321755"><ele>253.00000000000003</ele><time>2026-04-11T09:06:04.954Z</time></trkpt><trkpt lat="37.1424736" lon="15.0321263"><ele>253.00000000000003</ele><time>2026-04-11T09:06:11.921Z</time></trkpt><trkpt lat="37.1425132" lon="15.0320617"><ele>253.0</ele><time>2026-04-11T09:06:17.854Z</time></trkpt><trkpt lat="37.1425606" lon="15.0320069"><ele>253.00000000000003</ele><time>2026-04-11T09:06:23.892Z</time></trkpt><trkpt lat="37.142605" lon="15.0319453"><ele>253.00000000000003</ele><time>2026-04-11T09:06:34.905Z</time></trkpt><trkpt lat="37.1426172" lon="15.0318552"><ele>253.0</ele><time>2026-04-11T09:07:01.854Z</time></trkpt><trkpt lat="37.1426266" lon="15.031763"><ele>253.00000000000003</ele><time>2026-04-11T09:07:07.853Z</time></trkpt><trkpt lat="37.1426354" lon="15.0316694"><ele>253.00000000000003</ele><time>2026-04-11T09:07:11.929Z</time></trkpt><trkpt lat="37.1426617" lon="15.0315839"><ele>253.00000000000003</ele><time>2026-04-11T09:07:41.892Z</time></trkpt><trkpt lat="37.1427007" lon="15.0315043"><ele>253.0</ele><time>2026-04-11T09:08:12.992Z</time></trkpt><trkpt lat="37.1427256" lon="15.0314151"><ele>253.00000000000003</ele><time>2026-04-11T09:08:18.906Z</time></trkpt><trkpt lat="37.142764" lon="15.0313486"><ele>253.00000000000003</ele><time>2026-04-11T09:08:25.873Z</time></trkpt><trkpt lat="37.1427994" lon="15.0312707"><ele>253.0</ele><time>2026-04-11T09:08:31.905Z</time></trkpt><trkpt lat="37.1428317" lon="15.0312001"><ele>253.00000000000003</ele><time>2026-04-11T09:08:39.914Z</time></trkpt><trkpt lat="37.142858" lon="15.0311212"><ele>253.00000000000003</ele><time>2026-04-11T09:08:46.952Z</time></trkpt><trkpt lat="37.142868" lon="15.0310422"><ele>253.00000000000003</ele><time>2026-04-11T09:08:52.914Z</time></trkpt><trkpt lat="37.142837" lon="15.0309719"><ele>253.0</ele><time>2026-04-11T09:09:03.951Z</time></trkpt><trkpt lat="37.142862" lon="15.0308901"><ele>253.00000000000003</ele><time>2026-04-11T09:09:20.931Z</time></trkpt><trkpt lat="37.1428637" lon="15.0308005"><ele>253.00000000000003</ele><time>2026-04-11T09:09:25.882Z</time></trkpt><trkpt lat="37.1428476" lon="15.0307143"><ele>253.0</ele><time>2026-04-11T09:09:31.913Z</time></trkpt><trkpt lat="37.1428287" lon="15.030634"><ele>253.00000000000003</ele><time>2026-04-11T09:09:43.873Z</time></trkpt><trkpt lat="37.1428172" lon="15.0305545"><ele>253.00000000000003</ele><time>2026-04-11T09:09:49.906Z</time></trkpt><trkpt lat="37.1428055" lon="15.0304639"><ele>257.0</ele><time>2026-04-11T09:09:55.937Z</time></trkpt><trkpt lat="37.1427867" lon="15.0303801"><ele>261.0</ele><time>2026-04-11T09:10:07.897Z</time></trkpt><trkpt lat="37.1427655" lon="15.0302917"><ele>265.0</ele><time>2026-04-11T09:10:13.93Z</time></trkpt><trkpt lat="37.1427114" lon="15.0302442"><ele>269.0</ele><time>2026-04-11T09:10:21.937Z</time></trkpt><trkpt lat="37.1426155" lon="15.0302302"><ele>273.0</ele><time>2026-04-11T09:11:04.89Z</time></trkpt><trkpt lat="37.1425467" lon="15.0301784"><ele>277.0</ele><time>2026-04-11T09:11:11.857Z</time></trkpt><trkpt lat="37.1424874" lon="15.0301367"><ele>277.0</ele><time>2026-04-11T09:11:20.931Z</time></trkpt><trkpt lat="37.1424205" lon="15.0300992"><ele>277.0</ele><time>2026-04-11T09:11:30.871Z</time></trkpt><trkpt lat="37.1423687" lon="15.0300444"><ele>277.0</ele><time>2026-04-11T09:11:38.897Z</time></trkpt><trkpt lat="37.142299" lon="15.0300481"><ele>277.0</ele><time>2026-04-11T09:12:13.853Z</time></trkpt><trkpt lat="37.1422371" lon="15.0300652"><ele>277.0</ele><time>2026-04-11T09:12:26.946Z</time></trkpt><trkpt lat="37.1421723" lon="15.0300864"><ele>277.0</ele><time>2026-04-11T09:12:56.897Z</time></trkpt><trkpt lat="37.1421223" lon="15.0300364"><ele>277.0</ele><time>2026-04-11T09:13:05.946Z</time></trkpt><trkpt lat="37.142066" lon="15.0299851"><ele>277.85714285714283</ele><time>2026-04-11T09:13:15.929Z</time></trkpt><trkpt lat="37.1420026" lon="15.0299573"><ele>278.71428571428567</ele><time>2026-04-11T09:13:25.751Z</time></trkpt><trkpt lat="37.1419356" lon="15.0299465"><ele>279.57142857142856</ele><time>2026-04-11T09:13:30.906Z</time></trkpt><trkpt lat="37.1418702" lon="15.0299279"><ele>280.42857142857144</ele><time>2026-04-11T09:13:36.938Z</time></trkpt><trkpt lat="37.141802" lon="15.0299341"><ele>281.28571428571433</ele><time>2026-04-11T09:13:44.945Z</time></trkpt><trkpt lat="37.1417312" lon="15.0299481"><ele>282.14285714285717</ele><time>2026-04-11T09:13:52.836Z</time></trkpt><trkpt lat="37.1416676" lon="15.0299729"><ele>283.0</ele><time>2026-04-11T09:13:59.922Z</time></trkpt><trkpt lat="37.1416008" lon="15.0299857"><ele>279.7142857142857</ele><time>2026-04-11T09:14:04.913Z</time></trkpt><trkpt lat="37.1415275" lon="15.0299885"><ele>276.42857142857144</ele><time>2026-04-11T09:14:23.836Z</time></trkpt><trkpt lat="37.1414576" lon="15.0299723"><ele>273.14285714285717</ele><time>2026-04-11T09:14:31.853Z</time></trkpt><trkpt lat="37.1413871" lon="15.0299716"><ele>269.8571428571429</ele><time>2026-04-11T09:14:37.881Z</time></trkpt><trkpt lat="37.1413205" lon="15.0299502"><ele>266.57142857142856</ele><time>2026-04-11T09:14:44.953Z</time></trkpt><trkpt lat="37.1412575" lon="15.0299787"><ele>263.28571428571433</ele><time>2026-04-11T09:14:54.001Z</time></trkpt><trkpt lat="37.1411882" lon="15.0300188"><ele>260.0</ele><time>2026-04-11T09:15:25.826Z</time></trkpt><trkpt lat="37.1411255" lon="15.0300341"><ele>260.00000000000006</ele><time>2026-04-11T09:15:32.907Z</time></trkpt><trkpt lat="37.1410621" lon="15.030066"><ele>260.0</ele><time>2026-04-11T09:15:40.509Z</time></trkpt><trkpt lat="37.1409977" lon="15.0300612"><ele>260.0</ele><time>2026-04-11T09:15:44.961Z</time></trkpt><trkpt lat="37.140938" lon="15.0300353"><ele>260.0</ele><time>2026-04-11T09:15:58.898Z</time></trkpt><trkpt lat="37.1408678" lon="15.0300213"><ele>260.0</ele><time>2026-04-11T09:16:06.905Z</time></trkpt><trkpt lat="37.1408154" lon="15.0299675"><ele>260.00000000000006</ele><time>2026-04-11T09:16:14.913Z</time></trkpt><trkpt lat="37.1407855" lon="15.0298967"><ele>260.0</ele><time>2026-04-11T09:16:22.967Z</time></trkpt><trkpt lat="37.1407228" lon="15.0298584"><ele>259.5714285714286</ele><time>2026-04-11T09:16:35.947Z</time></trkpt><trkpt lat="37.1406667" lon="15.0298117"><ele>259.14285714285717</ele><time>2026-04-11T09:16:46.946Z</time></trkpt><trkpt lat="37.1406231" lon="15.0297521"><ele>258.7142857142857</ele><time>2026-04-11T09:16:58.905Z</time></trkpt><trkpt lat="37.1405594" lon="15.0297298"><ele>258.28571428571433</ele><time>2026-04-11T09:17:10.969Z</time></trkpt><trkpt lat="37.1405261" lon="15.0296613"><ele>257.8571428571429</ele><time>2026-04-11T09:17:22.84Z</time></trkpt><trkpt lat="37.1404714" lon="15.0296187"><ele>257.42857142857144</ele><time>2026-04-11T09:17:32.914Z</time></trkpt><trkpt lat="37.140441" lon="15.0295415"><ele>257.0</ele><time>2026-04-11T09:17:43.938Z</time></trkpt><trkpt lat="37.1405067" lon="15.0294358"><ele>257.0</ele><time>2026-04-11T09:18:22.938Z</time></trkpt><trkpt lat="37.1405219" lon="15.0293317"><ele>257.0</ele><time>2026-04-11T09:18:53.928Z</time></trkpt><trkpt lat="37.1404043" lon="15.0292917"><ele>257.0</ele><time>2026-04-11T09:19:32.929Z</time></trkpt><trkpt lat="37.1403513" lon="15.0292382"><ele>257.0</ele><time>2026-04-11T09:19:42.913Z</time></trkpt><trkpt lat="37.1403061" lon="15.0293162"><ele>257.0</ele><time>2026-04-11T09:20:44.987Z</time></trkpt><trkpt lat="37.1402653" lon="15.0293765"><ele>257.0</ele><time>2026-04-11T09:20:50.928Z</time></trkpt><trkpt lat="37.1402033" lon="15.0294006"><ele>257.0</ele><time>2026-04-11T09:20:58.938Z</time></trkpt><trkpt lat="37.140141" lon="15.0293768"><ele>257.0</ele><time>2026-04-11T09:21:24.002Z</time></trkpt><trkpt lat="37.1400774" lon="15.0293986"><ele>257.0</ele><time>2026-04-11T09:21:29.852Z</time></trkpt><trkpt lat="37.1400237" lon="15.0293555"><ele>257.0</ele><time>2026-04-11T09:21:47.922Z</time></trkpt><trkpt lat="37.1400638" lon="15.0294244"><ele>257.0</ele><time>2026-04-11T09:21:55.929Z</time></trkpt><trkpt lat="37.1401314" lon="15.0294708"><ele>257.0</ele><time>2026-04-11T09:22:00.921Z</time></trkpt><trkpt lat="37.1401644" lon="15.0295711"><ele>257.0</ele><time>2026-04-11T09:22:07.897Z</time></trkpt><trkpt lat="37.1401006" lon="15.0295949"><ele>257.0</ele><time>2026-04-11T09:22:13.922Z</time></trkpt><trkpt lat="37.1400955" lon="15.0295099"><ele>257.0</ele><time>2026-04-11T09:22:22.865Z</time></trkpt><trkpt lat="37.1400324" lon="15.0294964"><ele>257.0</ele><time>2026-04-11T09:22:32.851Z</time></trkpt><trkpt lat="37.140002" lon="15.0294239"><ele>257.0</ele><time>2026-04-11T09:22:49.905Z</time></trkpt><trkpt lat="37.1400426" lon="15.0293557"><ele>257.0</ele><time>2026-04-11T09:23:50.852Z</time></trkpt><trkpt lat="37.1400124" lon="15.0292853"><ele>257.0</ele><time>2026-04-11T09:24:00.938Z</time></trkpt><trkpt lat="37.1399812" lon="15.0293655"><ele>257.0</ele><time>2026-04-11T09:25:48.89Z</time></trkpt><trkpt lat="37.1399177" lon="15.029364"><ele>257.0</ele><time>2026-04-11T09:27:11.045Z</time></trkpt><trkpt lat="37.1399187" lon="15.0294461"><ele>257.0</ele><time>2026-04-11T09:27:24.877Z</time></trkpt><trkpt lat="37.1399707" lon="15.0293979"><ele>257.0</ele><time>2026-04-11T09:27:30.909Z</time></trkpt><trkpt lat="37.1400071" lon="15.0293293"><ele>257.0</ele><time>2026-04-11T09:28:13.965Z</time></trkpt><trkpt lat="37.1399497" lon="15.0292866"><ele>257.0</ele><time>2026-04-11T09:28:38.925Z</time></trkpt><trkpt lat="37.1399504" lon="15.0293727"><ele>257.0</ele><time>2026-04-11T09:29:33.85Z</time></trkpt><trkpt lat="37.1400263" lon="15.0294075"><ele>257.0</ele><time>2026-04-11T09:30:33.928Z</time></trkpt><trkpt lat="37.1399769" lon="15.0293467"><ele>257.0</ele><time>2026-04-11T09:31:59.957Z</time></trkpt><trkpt lat="37.1399882" lon="15.029249"><ele>257.0</ele><time>2026-04-11T09:32:55.905Z</time></trkpt><trkpt lat="37.1400194" lon="15.0293378"><ele>257.0</ele><time>2026-04-11T09:33:43.95Z</time></trkpt><trkpt lat="37.140031" lon="15.0294232"><ele>257.0</ele><time>2026-04-11T09:34:19.933Z</time></trkpt><trkpt lat="37.1400383" lon="15.0295036"><ele>257.0</ele><time>2026-04-11T09:34:26.901Z</time></trkpt><trkpt lat="37.1400445" lon="15.0295863"><ele>257.0</ele><time>2026-04-11T09:44:00.982Z</time></trkpt><trkpt lat="37.1400546" lon="15.0296713"><ele>257.0</ele><time>2026-04-11T09:44:18.973Z</time></trkpt><trkpt lat="37.1401025" lon="15.0297255"><ele>257.0</ele><time>2026-04-11T09:45:13.884Z</time></trkpt><trkpt lat="37.1400866" lon="15.0298238"><ele>257.0</ele><time>2026-04-11T09:45:58.917Z</time></trkpt><trkpt lat="37.1400213" lon="15.029835"><ele>257.0</ele><time>2026-04-11T09:46:08.9Z</time></trkpt><trkpt lat="37.1399714" lon="15.0299062"><ele>257.0</ele><time>2026-04-11T09:46:25.86Z</time></trkpt><trkpt lat="37.1399768" lon="15.0298253"><ele>257.0</ele><time>2026-04-11T09:47:03.924Z</time></trkpt><trkpt lat="37.1399337" lon="15.0298832"><ele>257.0</ele><time>2026-04-11T09:47:48.956Z</time></trkpt><trkpt lat="37.1398819" lon="15.0299521"><ele>257.0</ele><time>2026-04-11T09:48:09.964Z</time></trkpt><trkpt lat="37.1398856" lon="15.0298696"><ele>267.7142857142857</ele><time>2026-04-11T09:48:26.917Z</time></trkpt><trkpt lat="37.139843" lon="15.0298097"><ele>278.42857142857144</ele><time>2026-04-11T09:48:45.012Z</time></trkpt><trkpt lat="37.1397739" lon="15.0297291"><ele>289.1428571428571</ele><time>2026-04-11T09:51:05.929Z</time></trkpt><trkpt lat="37.1397734" lon="15.0296463"><ele>299.8571428571429</ele><time>2026-04-11T09:51:15.914Z</time></trkpt><trkpt lat="37.1397203" lon="15.0296031"><ele>310.5714285714286</ele><time>2026-04-11T09:51:30.89Z</time></trkpt><trkpt lat="37.1397267" lon="15.0295184"><ele>321.2857142857143</ele><time>2026-04-11T09:51:39.937Z</time></trkpt><trkpt lat="37.1397616" lon="15.0294423"><ele>332.0</ele><time>2026-04-11T09:51:47.945Z</time></trkpt><trkpt lat="37.1397723" lon="15.0293626"><ele>332.0</ele><time>2026-04-11T09:52:02.921Z</time></trkpt><trkpt lat="37.1398853" lon="15.0294142"><ele>332.0</ele><time>2026-04-11T09:52:13.945Z</time></trkpt><trkpt lat="37.139955" lon="15.0293482"><ele>332.0</ele><time>2026-04-11T09:52:22.838Z</time></trkpt><trkpt lat="37.1399637" lon="15.0292635"><ele>332.0</ele><time>2026-04-11T09:52:31.937Z</time></trkpt><trkpt lat="37.1399377" lon="15.0291904"><ele>332.0</ele><time>2026-04-11T09:52:38.906Z</time></trkpt><trkpt lat="37.1398777" lon="15.029158"><ele>332.0</ele><time>2026-04-11T09:52:43.898Z</time></trkpt><trkpt lat="37.1399596" lon="15.0291242"><ele>324.1666666666667</ele><time>2026-04-11T09:53:21.856Z</time></trkpt><trkpt lat="37.1400175" lon="15.029168"><ele>316.33333333333337</ele><time>2026-04-11T09:53:30.906Z</time></trkpt><trkpt lat="37.1400407" lon="15.0292428"><ele>308.5</ele><time>2026-04-11T09:53:40.889Z</time></trkpt><trkpt lat="37.1399754" lon="15.0292235"><ele>300.6666666666667</ele><time>2026-04-11T09:54:07.93Z</time></trkpt><trkpt lat="37.139916" lon="15.0291866"><ele>292.8333333333333</ele><time>2026-04-11T09:54:15.937Z</time></trkpt><trkpt lat="37.1399167" lon="15.0290569"><ele>285.0</ele><time>2026-04-11T09:54:43.914Z</time></trkpt><trkpt lat="37.139962" lon="15.0289641"><ele>285.0</ele><time>2026-04-11T09:54:48.905Z</time></trkpt><trkpt lat="37.1400215" lon="15.028568"><ele>285.0</ele><time>2026-04-11T09:55:06.845Z</time></trkpt><trkpt lat="37.1400254" lon="15.0284717"><ele>285.0</ele><time>2026-04-11T09:55:08.845Z</time></trkpt><trkpt lat="37.1400289" lon="15.0283841"><ele>257.0</ele><time>2026-04-11T09:55:11.846Z</time></trkpt><trkpt lat="37.1400617" lon="15.0293417"><ele>257.0</ele><time>2026-04-11T09:56:06.845Z</time></trkpt><trkpt lat="37.1399836" lon="15.0293864"><ele>257.0</ele><time>2026-04-11T09:56:08.845Z</time></trkpt><trkpt lat="37.1399233" lon="15.0293263"><ele>257.0</ele><time>2026-04-11T09:56:11.846Z</time></trkpt><trkpt lat="37.1398715" lon="15.0292722"><ele>257.0</ele><time>2026-04-11T09:56:15.922Z</time></trkpt><trkpt lat="37.1398066" lon="15.0292533"><ele>257.0</ele><time>2026-04-11T09:56:19.874Z</time></trkpt><trkpt lat="37.1398027" lon="15.0291722"><ele>257.0</ele><time>2026-04-11T09:56:33.913Z</time></trkpt><trkpt lat="37.1397693" lon="15.0290599"><ele>257.0</ele><time>2026-04-11T09:56:59.913Z</time></trkpt><trkpt lat="37.1398096" lon="15.0289873"><ele>257.0</ele><time>2026-04-11T09:57:08.857Z</time></trkpt><trkpt lat="37.1398173" lon="15.0291352"><ele>257.0</ele><time>2026-04-11T09:57:29.866Z</time></trkpt><trkpt lat="37.1398382" lon="15.0292331"><ele>257.0</ele><time>2026-04-11T09:57:30.956Z</time></trkpt><trkpt lat="37.1399035" lon="15.0292513"><ele>257.0</ele><time>2026-04-11T09:57:37.935Z</time></trkpt><trkpt lat="37.1399494" lon="15.029193"><ele>257.0</ele><time>2026-04-11T09:57:44.946Z</time></trkpt><trkpt lat="37.1399889" lon="15.0292748"><ele>257.0</ele><time>2026-04-11T09:58:03.872Z</time></trkpt><trkpt lat="37.1400726" lon="15.0292137"><ele>257.0</ele><time>2026-04-11T09:58:23.931Z</time></trkpt><trkpt lat="37.1401389" lon="15.0292222"><ele>257.0</ele><time>2026-04-11T09:58:29.873Z</time></trkpt><trkpt lat="37.1401667" lon="15.0292976"><ele>257.0</ele><time>2026-04-11T09:58:38.922Z</time></trkpt><trkpt lat="37.1401709" lon="15.0293898"><ele>257.0</ele><time>2026-04-11T09:58:46.335Z</time></trkpt><trkpt lat="37.1401828" lon="15.0294828"><ele>257.0</ele><time>2026-04-11T09:59:10.849Z</time></trkpt><trkpt lat="37.1401353" lon="15.0294065"><ele>257.0</ele><time>2026-04-11T09:59:46.844Z</time></trkpt><trkpt lat="37.1401785" lon="15.0293483"><ele>257.0</ele><time>2026-04-11T10:00:17.929Z</time></trkpt><trkpt lat="37.1402825" lon="15.0291894"><ele>257.0</ele><time>2026-04-11T10:00:43.93Z</time></trkpt><trkpt lat="37.1403768" lon="15.0290573"><ele>257.0</ele><time>2026-04-11T10:00:48.252Z</time></trkpt><trkpt lat="37.1404178" lon="15.0289878"><ele>257.0</ele><time>2026-04-11T10:00:50.897Z</time></trkpt><trkpt lat="37.1404666" lon="15.0289335"><ele>257.0</ele><time>2026-04-11T10:00:53.914Z</time></trkpt><trkpt lat="37.1403817" lon="15.0290791"><ele>257.0</ele><time>2026-04-11T10:00:59.844Z</time></trkpt><trkpt lat="37.1403309" lon="15.0291552"><ele>257.0</ele><time>2026-04-11T10:01:00.844Z</time></trkpt><trkpt lat="37.1402887" lon="15.0292208"><ele>257.0</ele><time>2026-04-11T10:01:02.844Z</time></trkpt><trkpt lat="37.1402361" lon="15.0292794"><ele>257.0</ele><time>2026-04-11T10:01:06.844Z</time></trkpt><trkpt lat="37.1401566" lon="15.029383"><ele>257.0</ele><time>2026-04-11T10:01:27.844Z</time></trkpt><trkpt lat="37.1401554" lon="15.0294742"><ele>257.0</ele><time>2026-04-11T10:02:38.844Z</time></trkpt><trkpt lat="37.1401463" lon="15.0293555"><ele>257.0</ele><time>2026-04-11T10:02:52.845Z</time></trkpt><trkpt lat="37.1400839" lon="15.0293868"><ele>257.0</ele><time>2026-04-11T10:03:30.844Z</time></trkpt><trkpt lat="37.1400055" lon="15.0293957"><ele>257.0</ele><time>2026-04-11T10:03:45.844Z</time></trkpt><trkpt lat="37.1401035" lon="15.0292891"><ele>257.0</ele><time>2026-04-11T10:04:27.845Z</time></trkpt><trkpt lat="37.1401742" lon="15.0292165"><ele>257.0</ele><time>2026-04-11T10:04:54.845Z</time></trkpt><trkpt lat="37.1401997" lon="15.0292957"><ele>257.0</ele><time>2026-04-11T10:05:10.843Z</time></trkpt><trkpt lat="37.1401208" lon="15.0293247"><ele>257.0</ele><time>2026-04-11T10:06:42.843Z</time></trkpt><trkpt lat="37.1400483" lon="15.0293263"><ele>257.0</ele><time>2026-04-11T10:07:46.843Z</time></trkpt><trkpt lat="37.1401096" lon="15.0293965"><ele>257.0</ele><time>2026-04-11T10:08:15.844Z</time></trkpt><trkpt lat="37.1401556" lon="15.0292778"><ele>257.0</ele><time>2026-04-11T10:12:42.844Z</time></trkpt><trkpt lat="37.1401425" lon="15.0293615"><ele>257.0</ele><time>2026-04-11T10:13:07.843Z</time></trkpt><trkpt lat="37.1401459" lon="15.0294681"><ele>257.0</ele><time>2026-04-11T10:13:30.844Z</time></trkpt><trkpt lat="37.1401755" lon="15.0293966"><ele>257.0</ele><time>2026-04-11T10:13:43.843Z</time></trkpt><trkpt lat="37.1402128" lon="15.0293283"><ele>257.0</ele><time>2026-04-11T10:13:46.843Z</time></trkpt><trkpt lat="37.1401818" lon="15.0292382"><ele>257.0</ele><time>2026-04-11T10:14:07.843Z</time></trkpt><trkpt lat="37.1401681" lon="15.0293289"><ele>257.0</ele><time>2026-04-11T10:14:20.844Z</time></trkpt><trkpt lat="37.1401077" lon="15.0292954"><ele>257.0</ele><time>2026-04-11T10:14:48.843Z</time></trkpt><trkpt lat="37.1400538" lon="15.0292163"><ele>257.0</ele><time>2026-04-11T10:15:05.843Z</time></trkpt><trkpt lat="37.1399585" lon="15.0291689"><ele>257.0</ele><time>2026-04-11T10:15:33.843Z</time></trkpt><trkpt lat="37.1398847" lon="15.0291006"><ele>257.0</ele><time>2026-04-11T10:15:36.844Z</time></trkpt><trkpt lat="37.1398199" lon="15.0291018"><ele>257.0</ele><time>2026-04-11T10:15:38.843Z</time></trkpt><trkpt lat="37.1399199" lon="15.0290638"><ele>257.0</ele><time>2026-04-11T10:15:50.843Z</time></trkpt><trkpt lat="37.1400002" lon="15.029052"><ele>257.0</ele><time>2026-04-11T10:15:53.844Z</time></trkpt><trkpt lat="37.1399354" lon="15.0292078"><ele>257.0</ele><time>2026-04-11T10:16:05.843Z</time></trkpt><trkpt lat="37.13989" lon="15.0292746"><ele>257.0</ele><time>2026-04-11T10:16:06.844Z</time></trkpt><trkpt lat="37.1398802" lon="15.0293906"><ele>257.0</ele><time>2026-04-11T10:16:32.843Z</time></trkpt><trkpt lat="37.1399447" lon="15.0293529"><ele>257.0</ele><time>2026-04-11T10:17:02.842Z</time></trkpt><trkpt lat="37.1399223" lon="15.0292604"><ele>257.0</ele><time>2026-04-11T10:17:08.842Z</time></trkpt><trkpt lat="37.139901" lon="15.029362"><ele>257.0</ele><time>2026-04-11T10:17:11.843Z</time></trkpt><trkpt lat="37.1398527" lon="15.0294276"><ele>257.0</ele><time>2026-04-11T10:17:14.842Z</time></trkpt><trkpt lat="37.1399045" lon="15.0293766"><ele>257.0</ele><time>2026-04-11T10:17:23.843Z</time></trkpt><trkpt lat="37.1399469" lon="15.0293063"><ele>257.0</ele><time>2026-04-11T10:17:25.843Z</time></trkpt><trkpt lat="37.1399018" lon="15.0293652"><ele>257.0</ele><time>2026-04-11T10:17:49.843Z</time></trkpt><trkpt lat="37.1398933" lon="15.0292766"><ele>257.0</ele><time>2026-04-11T10:19:06.842Z</time></trkpt><trkpt lat="37.1399439" lon="15.0292005"><ele>257.0</ele><time>2026-04-11T10:19:09.843Z</time></trkpt><trkpt lat="37.1398697" lon="15.0291867"><ele>257.0</ele><time>2026-04-11T10:19:19.842Z</time></trkpt><trkpt lat="37.1399753" lon="15.02915"><ele>257.0</ele><time>2026-04-11T10:19:22.843Z</time></trkpt><trkpt lat="37.1400377" lon="15.0291233"><ele>257.0</ele><time>2026-04-11T10:19:26.843Z</time></trkpt><trkpt lat="37.1399791" lon="15.0292295"><ele>257.0</ele><time>2026-04-11T10:19:36.842Z</time></trkpt><trkpt lat="37.139913" lon="15.0292155"><ele>257.0</ele><time>2026-04-11T10:19:37.842Z</time></trkpt><trkpt lat="37.1398341" lon="15.0291879"><ele>257.0</ele><time>2026-04-11T10:19:39.842Z</time></trkpt><trkpt lat="37.1397702" lon="15.0292158"><ele>257.0</ele><time>2026-04-11T10:19:52.842Z</time></trkpt><trkpt lat="37.1399244" lon="15.0291763"><ele>257.0</ele><time>2026-04-11T10:20:03.843Z</time></trkpt><trkpt lat="37.1399875" lon="15.0291684"><ele>257.0</ele><time>2026-04-11T10:20:04.842Z</time></trkpt><trkpt lat="37.1400626" lon="15.0291754"><ele>257.0</ele><time>2026-04-11T10:20:06.843Z</time></trkpt><trkpt lat="37.1401353" lon="15.0291649"><ele>257.0</ele><time>2026-04-11T10:20:12.843Z</time></trkpt><trkpt lat="37.1400024" lon="15.029112"><ele>257.0</ele><time>2026-04-11T10:20:28.842Z</time></trkpt><trkpt lat="37.1399696" lon="15.0289556"><ele>261.0</ele><time>2026-04-11T10:20:55.842Z</time></trkpt><trkpt lat="37.1399034" lon="15.0289454"><ele>265.0</ele><time>2026-04-11T10:20:59.842Z</time></trkpt><trkpt lat="37.1398586" lon="15.0288815"><ele>269.0</ele><time>2026-04-11T10:21:04.842Z</time></trkpt><trkpt lat="37.1398195" lon="15.0288166"><ele>273.0</ele><time>2026-04-11T10:21:07.842Z</time></trkpt><trkpt lat="37.1397449" lon="15.0287454"><ele>277.0</ele><time>2026-04-11T10:21:09.843Z</time></trkpt><trkpt lat="37.1396866" lon="15.028695"><ele>281.0</ele><time>2026-04-11T10:21:12.881Z</time></trkpt><trkpt lat="37.1397154" lon="15.0287667"><ele>285.0</ele><time>2026-04-11T10:21:16.916Z</time></trkpt><trkpt lat="37.1396436" lon="15.028754"><ele>278.0</ele><time>2026-04-11T10:21:21.842Z</time></trkpt><trkpt lat="37.1396746" lon="15.0286734"><ele>271.0</ele><time>2026-04-11T10:21:28.897Z</time></trkpt><trkpt lat="37.1397163" lon="15.0287691"><ele>264.0</ele><time>2026-04-11T10:21:31.914Z</time></trkpt><trkpt lat="37.1398351" lon="15.0290461"><ele>257.0</ele><time>2026-04-11T10:21:34.93Z</time></trkpt><trkpt lat="37.1399334" lon="15.0293333"><ele>257.0</ele><time>2026-04-11T10:21:35.866Z</time></trkpt><trkpt lat="37.1399484" lon="15.0294136"><ele>257.0</ele><time>2026-04-11T10:21:41.897Z</time></trkpt><trkpt lat="37.1400411" lon="15.0294312"><ele>257.0</ele><time>2026-04-11T10:21:54.897Z</time></trkpt><trkpt lat="37.1401054" lon="15.0294189"><ele>257.0</ele><time>2026-04-11T10:22:06.961Z</time></trkpt><trkpt lat="37.1399839" lon="15.029513"><ele>257.0</ele><time>2026-04-11T10:22:19.961Z</time></trkpt><trkpt lat="37.1399292" lon="15.029563"><ele>257.0</ele><time>2026-04-11T10:22:23.775Z</time></trkpt><trkpt lat="37.1398702" lon="15.0295933"><ele>267.7142857142857</ele><time>2026-04-11T10:24:12.906Z</time></trkpt><trkpt lat="37.1398064" lon="15.0295977"><ele>278.42857142857144</ele><time>2026-04-11T10:24:28.921Z</time></trkpt><trkpt lat="37.1397471" lon="15.0296297"><ele>289.1428571428571</ele><time>2026-04-11T10:24:48.889Z</time></trkpt><trkpt lat="37.1397979" lon="15.0296919"><ele>299.8571428571429</ele><time>2026-04-11T10:26:34.866Z</time></trkpt><trkpt lat="37.139843" lon="15.0296342"><ele>310.5714285714286</ele><time>2026-04-11T10:26:52.857Z</time></trkpt><trkpt lat="37.139796" lon="15.0295734"><ele>321.2857142857143</ele><time>2026-04-11T10:30:09.933Z</time></trkpt><trkpt lat="37.1398663" lon="15.0295694"><ele>332.0</ele><time>2026-04-11T10:31:24.917Z</time></trkpt><trkpt lat="37.1397933" lon="15.0296631"><ele>332.0</ele><time>2026-04-11T10:34:15.894Z</time></trkpt><trkpt lat="37.1397745" lon="15.0297566"><ele>332.0</ele><time>2026-04-11T10:34:21.925Z</time></trkpt><trkpt lat="37.1398478" lon="15.0297689"><ele>332.0</ele><time>2026-04-11T10:34:47.925Z</time></trkpt><trkpt lat="37.1399057" lon="15.0298248"><ele>332.0</ele><time>2026-04-11T10:35:14.973Z</time></trkpt><trkpt lat="37.1399545" lon="15.0298748"><ele>332.0</ele><time>2026-04-11T10:35:21.934Z</time></trkpt><trkpt lat="37.1399931" lon="15.0299527"><ele>332.0</ele><time>2026-04-11T10:35:35.974Z</time></trkpt><trkpt lat="37.1400452" lon="15.0300066"><ele>332.0</ele><time>2026-04-11T10:36:47.942Z</time></trkpt><trkpt lat="37.1401092" lon="15.0300116"><ele>332.0</ele><time>2026-04-11T10:36:55.95Z</time></trkpt><trkpt lat="37.1400363" lon="15.0299835"><ele>332.0</ele><time>2026-04-11T10:43:43.937Z</time></trkpt><trkpt lat="37.1399933" lon="15.0299231"><ele>332.0</ele><time>2026-04-11T10:44:36.874Z</time></trkpt><trkpt lat="37.1399492" lon="15.0298516"><ele>332.0</ele><time>2026-04-11T10:44:56.946Z</time></trkpt><trkpt lat="37.1398875" lon="15.0298303"><ele>332.0</ele><time>2026-04-11T10:45:14.319Z</time></trkpt><trkpt lat="37.1398293" lon="15.029789"><ele>332.0</ele><time>2026-04-11T10:45:18.894Z</time></trkpt><trkpt lat="37.1397909" lon="15.0295581"><ele>332.0</ele><time>2026-04-11T10:45:46.973Z</time></trkpt><trkpt lat="37.1398119" lon="15.0294786"><ele>332.0</ele><time>2026-04-11T10:45:50.9Z</time></trkpt><trkpt lat="37.1399817" lon="15.029346"><ele>332.0</ele><time>2026-04-11T10:45:55.917Z</time></trkpt><trkpt lat="37.1399264" lon="15.0293963"><ele>332.0</ele><time>2026-04-11T10:47:13.917Z</time></trkpt><trkpt lat="37.1398801" lon="15.0294516"><ele>332.0</ele><time>2026-04-11T10:47:17.973Z</time></trkpt><trkpt lat="37.1398127" lon="15.0294726"><ele>332.0</ele><time>2026-04-11T10:47:33.885Z</time></trkpt><trkpt lat="37.1397488" lon="15.0294718"><ele>332.0</ele><time>2026-04-11T10:47:47.925Z</time></trkpt><trkpt lat="37.139808" lon="15.0294249"><ele>332.0</ele><time>2026-04-11T10:48:03.942Z</time></trkpt><trkpt lat="37.1398762" lon="15.0293828"><ele>332.0</ele><time>2026-04-11T10:48:42.942Z</time></trkpt><trkpt lat="37.1399579" lon="15.0293983"><ele>332.0</ele><time>2026-04-11T10:48:45.957Z</time></trkpt><trkpt lat="37.1400234" lon="15.0294199"><ele>332.0</ele><time>2026-04-11T10:48:47.933Z</time></trkpt><trkpt lat="37.1400971" lon="15.0294221"><ele>332.0</ele><time>2026-04-11T10:48:49.91Z</time></trkpt><trkpt lat="37.1401599" lon="15.0294058"><ele>332.0</ele><time>2026-04-11T10:48:52.925Z</time></trkpt><trkpt lat="37.1400806" lon="15.0293971"><ele>332.0</ele><time>2026-04-11T10:49:07.901Z</time></trkpt><trkpt lat="37.1399964" lon="15.0293825"><ele>332.0</ele><time>2026-04-11T10:49:12.893Z</time></trkpt><trkpt lat="37.1399148" lon="15.0294038"><ele>332.0</ele><time>2026-04-11T10:49:14.869Z</time></trkpt><trkpt lat="37.1398321" lon="15.0294693"><ele>332.0</ele><time>2026-04-11T10:49:16.95Z</time></trkpt><trkpt lat="37.1397675" lon="15.0295073"><ele>332.0</ele><time>2026-04-11T10:49:23.918Z</time></trkpt><trkpt lat="37.1396945" lon="15.0295374"><ele>332.0</ele><time>2026-04-11T10:49:27.869Z</time></trkpt><trkpt lat="37.1396203" lon="15.0295207"><ele>332.0</ele><time>2026-04-11T10:49:30.885Z</time></trkpt><trkpt lat="37.1395426" lon="15.0295326"><ele>332.0</ele><time>2026-04-11T10:49:36.917Z</time></trkpt><trkpt lat="37.1394785" lon="15.029533"><ele>332.0</ele><time>2026-04-11T10:49:52.933Z</time></trkpt><trkpt lat="37.1394163" lon="15.0295694"><ele>332.0</ele><time>2026-04-11T10:49:57.925Z</time></trkpt><trkpt lat="37.139336" lon="15.0295419"><ele>332.0</ele><time>2026-04-11T10:50:02.917Z</time></trkpt><trkpt lat="37.1393826" lon="15.0294828"><ele>332.0</ele><time>2026-04-11T10:50:07.91Z</time></trkpt><trkpt lat="37.1394414" lon="15.0294399"><ele>332.0</ele><time>2026-04-11T10:50:16.957Z</time></trkpt><trkpt lat="37.1396759" lon="15.0294405"><ele>332.0</ele><time>2026-04-11T10:50:28.917Z</time></trkpt><trkpt lat="37.1398229" lon="15.0294168"><ele>332.0</ele><time>2026-04-11T10:50:29.957Z</time></trkpt><trkpt lat="37.1398889" lon="15.0294054"><ele>332.0</ele><time>2026-04-11T10:50:30.894Z</time></trkpt><trkpt lat="37.1399532" lon="15.0293918"><ele>332.0</ele><time>2026-04-11T10:50:45.94Z</time></trkpt><trkpt lat="37.1400168" lon="15.0293677"><ele>332.0</ele><time>2026-04-11T10:50:53.877Z</time></trkpt><trkpt lat="37.1400091" lon="15.0292784"><ele>332.0</ele><time>2026-04-11T10:51:03.966Z</time></trkpt><trkpt lat="37.1399236" lon="15.0293051"><ele>332.0</ele><time>2026-04-11T10:51:06.878Z</time></trkpt><trkpt lat="37.1398735" lon="15.0293555"><ele>332.0</ele><time>2026-04-11T10:51:08.957Z</time></trkpt><trkpt lat="37.1399433" lon="15.0293896"><ele>332.0</ele><time>2026-04-11T10:51:29.862Z</time></trkpt><trkpt lat="37.1400112" lon="15.0293486"><ele>332.0</ele><time>2026-04-11T10:51:34.957Z</time></trkpt><trkpt lat="37.1400798" lon="15.0293295"><ele>332.0</ele><time>2026-04-11T10:51:38.909Z</time></trkpt><trkpt lat="37.1400119" lon="15.0293325"><ele>332.0</ele><time>2026-04-11T10:52:00.957Z</time></trkpt><trkpt lat="37.1397322" lon="15.0294865"><ele>332.0</ele><time>2026-04-11T10:52:09.901Z</time></trkpt><trkpt lat="37.139744" lon="15.0293888"><ele>332.0</ele><time>2026-04-11T10:52:16.87Z</time></trkpt><trkpt lat="37.1396983" lon="15.0293038"><ele>332.0</ele><time>2026-04-11T10:52:19.886Z</time></trkpt><trkpt lat="37.1396327" lon="15.0293268"><ele>332.0</ele><time>2026-04-11T10:52:29.869Z</time></trkpt><trkpt lat="37.139738" lon="15.0293387"><ele>332.0</ele><time>2026-04-11T10:52:40.893Z</time></trkpt><trkpt lat="37.139919" lon="15.029287"><ele>332.0</ele><time>2026-04-11T10:52:41.933Z</time></trkpt><trkpt lat="37.1400395" lon="15.029269"><ele>319.5</ele><time>2026-04-11T10:52:51.918Z</time></trkpt><trkpt lat="37.1401186" lon="15.0293"><ele>307.0</ele><time>2026-04-11T10:52:55.843Z</time></trkpt><trkpt lat="37.1400562" lon="15.0293502"><ele>294.5</ele><time>2026-04-11T10:53:33.933Z</time></trkpt><trkpt lat="37.1399963" lon="15.0293917"><ele>282.0</ele><time>2026-04-11T10:53:39.965Z</time></trkpt><trkpt lat="37.139947" lon="15.029325"><ele>269.5</ele><time>2026-04-11T10:54:19.897Z</time></trkpt><trkpt lat="37.1400105" lon="15.0294476"><ele>257.0</ele><time>2026-04-11T10:55:09.921Z</time></trkpt><trkpt lat="37.1400164" lon="15.0295284"><ele>257.0</ele><time>2026-04-11T10:55:11.898Z</time></trkpt><trkpt lat="37.140021" lon="15.0296265"><ele>257.0</ele><time>2026-04-11T10:55:15.953Z</time></trkpt><trkpt lat="37.1400934" lon="15.0296627"><ele>257.0</ele><time>2026-04-11T10:55:19.906Z</time></trkpt><trkpt lat="37.1401642" lon="15.0295902"><ele>257.0</ele><time>2026-04-11T10:55:22.922Z</time></trkpt><trkpt lat="37.1402151" lon="15.0295145"><ele>257.0</ele><time>2026-04-11T10:55:25.937Z</time></trkpt><trkpt lat="37.1402302" lon="15.0294306"><ele>257.0</ele><time>2026-04-11T10:55:28.954Z</time></trkpt><trkpt lat="37.1401651" lon="15.0294273"><ele>257.0</ele><time>2026-04-11T10:56:07.952Z</time></trkpt><trkpt lat="37.1401902" lon="15.0293353"><ele>257.0</ele><time>2026-04-11T10:56:29.897Z</time></trkpt><trkpt lat="37.1402578" lon="15.0292715"><ele>257.0</ele><time>2026-04-11T10:56:34.89Z</time></trkpt><trkpt lat="37.1403145" lon="15.029216"><ele>257.0</ele><time>2026-04-11T10:56:41.857Z</time></trkpt><trkpt lat="37.1403915" lon="15.0292231"><ele>257.0</ele><time>2026-04-11T10:57:02.969Z</time></trkpt><trkpt lat="37.1404347" lon="15.0292818"><ele>257.0</ele><time>2026-04-11T10:57:36.874Z</time></trkpt><trkpt lat="37.1403707" lon="15.0293237"><ele>257.0</ele><time>2026-04-11T10:57:44.881Z</time></trkpt><trkpt lat="37.1403138" lon="15.0293661"><ele>257.0</ele><time>2026-04-11T10:57:53.93Z</time></trkpt><trkpt lat="37.1402329" lon="15.0293296"><ele>257.0</ele><time>2026-04-11T10:58:37.921Z</time></trkpt><trkpt lat="37.1402971" lon="15.0293322"><ele>257.0</ele><time>2026-04-11T10:58:39.898Z</time></trkpt><trkpt lat="37.140364" lon="15.0293394"><ele>257.0</ele><time>2026-04-11T10:58:43.85Z</time></trkpt><trkpt lat="37.1402135" lon="15.0293162"><ele>257.0</ele><time>2026-04-11T10:59:11.86Z</time></trkpt><trkpt lat="37.1401297" lon="15.0293301"><ele>257.0</ele><time>2026-04-11T10:59:13.905Z</time></trkpt><trkpt lat="37.1402968" lon="15.0293032"><ele>257.0</ele><time>2026-04-11T10:59:48.953Z</time></trkpt><trkpt lat="37.1403723" lon="15.0292908"><ele>257.0</ele><time>2026-04-11T10:59:49.89Z</time></trkpt><trkpt lat="37.140485" lon="15.0292391"><ele>257.0</ele><time>2026-04-11T10:59:50.929Z</time></trkpt><trkpt lat="37.1404255" lon="15.0292106"><ele>257.0</ele><time>2026-04-11T11:00:33.881Z</time></trkpt><trkpt lat="37.1404956" lon="15.029161"><ele>257.0</ele><time>2026-04-11T11:00:36.898Z</time></trkpt><trkpt lat="37.1404345" lon="15.0291873"><ele>257.0</ele><time>2026-04-11T11:01:10.905Z</time></trkpt><trkpt lat="37.140371" lon="15.0291838"><ele>257.0</ele><time>2026-04-11T11:01:39.922Z</time></trkpt><trkpt lat="37.1403049" lon="15.029188"><ele>257.0</ele><time>2026-04-11T11:02:05.922Z</time></trkpt><trkpt lat="37.1402555" lon="15.0291367"><ele>257.0</ele><time>2026-04-11T11:03:37.962Z</time></trkpt><trkpt lat="37.1401927" lon="15.0291517"><ele>257.0</ele><time>2026-04-11T11:03:53.874Z</time></trkpt><trkpt lat="37.1401292" lon="15.0291343"><ele>257.0</ele><time>2026-04-11T11:04:01.881Z</time></trkpt><trkpt lat="37.1402016" lon="15.0291703"><ele>257.0</ele><time>2026-04-11T11:04:54.921Z</time></trkpt><trkpt lat="37.140267" lon="15.0291929"><ele>257.0</ele><time>2026-04-11T11:05:00.953Z</time></trkpt><trkpt lat="37.1403422" lon="15.029217"><ele>257.0</ele><time>2026-04-11T11:05:06.881Z</time></trkpt><trkpt lat="37.1402881" lon="15.0292723"><ele>257.0</ele><time>2026-04-11T11:05:28.929Z</time></trkpt><trkpt lat="37.1403515" lon="15.0292474"><ele>257.0</ele><time>2026-04-11T11:05:31.945Z</time></trkpt><trkpt lat="37.1404135" lon="15.029223"><ele>257.0</ele><time>2026-04-11T11:05:33.921Z</time></trkpt><trkpt lat="37.1404748" lon="15.0291871"><ele>257.0</ele><time>2026-04-11T11:05:40.889Z</time></trkpt><trkpt lat="37.1404538" lon="15.0292658"><ele>257.0</ele><time>2026-04-11T11:06:00.858Z</time></trkpt><trkpt lat="37.1403627" lon="15.0292917"><ele>257.0</ele><time>2026-04-11T11:06:45.89Z</time></trkpt><trkpt lat="37.1403046" lon="15.0293262"><ele>257.0</ele><time>2026-04-11T11:07:18.961Z</time></trkpt><trkpt lat="37.1402422" lon="15.029313"><ele>257.0</ele><time>2026-04-11T11:07:33.937Z</time></trkpt><trkpt lat="37.1401791" lon="15.0293138"><ele>257.0</ele><time>2026-04-11T11:08:17.929Z</time></trkpt><trkpt lat="37.1400519" lon="15.0293431"><ele>257.0</ele><time>2026-04-11T11:08:29.889Z</time></trkpt><trkpt lat="37.1399893" lon="15.0293226"><ele>257.0</ele><time>2026-04-11T11:08:33.946Z</time></trkpt><trkpt lat="37.1400234" lon="15.0292374"><ele>257.0</ele><time>2026-04-11T11:09:08.889Z</time></trkpt><trkpt lat="37.1400884" lon="15.0292332"><ele>257.0</ele><time>2026-04-11T11:09:26.881Z</time></trkpt><trkpt lat="37.1402036" lon="15.0292398"><ele>257.0</ele><time>2026-04-11T11:10:46.962Z</time></trkpt><trkpt lat="37.1401187" lon="15.0292319"><ele>257.0</ele><time>2026-04-11T11:10:49.873Z</time></trkpt><trkpt lat="37.1400714" lon="15.0293019"><ele>257.0</ele><time>2026-04-11T11:11:06.929Z</time></trkpt><trkpt lat="37.1400219" lon="15.029353"><ele>257.0</ele><time>2026-04-11T11:11:14.937Z</time></trkpt><trkpt lat="37.139945" lon="15.0293447"><ele>257.0</ele><time>2026-04-11T11:11:34.905Z</time></trkpt><trkpt lat="37.1398884" lon="15.0293805"><ele>257.0</ele><time>2026-04-11T11:11:48.945Z</time></trkpt><trkpt lat="37.1398626" lon="15.0293027"><ele>257.0</ele><time>2026-04-11T11:12:46.873Z</time></trkpt><trkpt lat="37.1397977" lon="15.0292761"><ele>257.0</ele><time>2026-04-11T11:12:54.882Z</time></trkpt><trkpt lat="37.1397301" lon="15.0292961"><ele>257.0</ele><time>2026-04-11T11:13:04.865Z</time></trkpt><trkpt lat="37.1397881" lon="15.029337"><ele>257.0</ele><time>2026-04-11T11:13:07.881Z</time></trkpt><trkpt lat="37.139901" lon="15.0293416"><ele>257.0</ele><time>2026-04-11T11:13:23.896Z</time></trkpt><trkpt lat="37.1400554" lon="15.0293452"><ele>257.0</ele><time>2026-04-11T11:13:27.848Z</time></trkpt><trkpt lat="37.1399965" lon="15.0293768"><ele>257.0</ele><time>2026-04-11T11:13:47.83Z</time></trkpt><trkpt lat="37.1399296" lon="15.0293942"><ele>257.0</ele><time>2026-04-11T11:13:53.849Z</time></trkpt><trkpt lat="37.1397887" lon="15.0294018"><ele>257.0</ele><time>2026-04-11T11:14:06.849Z</time></trkpt><trkpt lat="37.1397923" lon="15.029489"><ele>257.0</ele><time>2026-04-11T11:14:41.898Z</time></trkpt><trkpt lat="37.1398651" lon="15.0295153"><ele>257.0</ele><time>2026-04-11T11:14:44.913Z</time></trkpt><trkpt lat="37.1398779" lon="15.0296409"><ele>257.0</ele><time>2026-04-11T11:15:07.897Z</time></trkpt><trkpt lat="37.1399435" lon="15.0298438"><ele>257.0</ele><time>2026-04-11T11:15:39.929Z</time></trkpt><trkpt lat="37.1399754" lon="15.029944"><ele>257.0</ele><time>2026-04-11T11:16:12.794Z</time></trkpt><trkpt lat="37.1400361" lon="15.0300049"><ele>255.50000000000003</ele><time>2026-04-11T11:17:10.93Z</time></trkpt><trkpt lat="37.1401002" lon="15.0300106"><ele>254.0</ele><time>2026-04-11T11:18:03.97Z</time></trkpt><trkpt lat="37.1400185" lon="15.0299945"><ele>252.5</ele><time>2026-04-11T11:19:50.907Z</time></trkpt><trkpt lat="37.1400503" lon="15.0300872"><ele>251.0</ele><time>2026-04-11T11:20:21.873Z</time></trkpt><trkpt lat="37.1401446" lon="15.0300592"><ele>249.50000000000003</ele><time>2026-04-11T11:20:56.921Z</time></trkpt><trkpt lat="37.1401676" lon="15.030148"><ele>248.0</ele><time>2026-04-11T11:20:57.858Z</time></trkpt><trkpt lat="37.1401962" lon="15.0302302"><ele>248.0</ele><time>2026-04-11T11:21:02.953Z</time></trkpt><trkpt lat="37.1402622" lon="15.0302996"><ele>248.0</ele><time>2026-04-11T11:21:22.921Z</time></trkpt><trkpt lat="37.1403966" lon="15.0303593"><ele>248.0</ele><time>2026-04-11T11:21:41.953Z</time></trkpt><trkpt lat="37.1404566" lon="15.0304004"><ele>248.0</ele><time>2026-04-11T11:22:08.942Z</time></trkpt><trkpt lat="37.1405457" lon="15.0304401"><ele>248.0</ele><time>2026-04-11T11:22:09.93Z</time></trkpt><trkpt lat="37.140648" lon="15.0305415"><ele>246.66666666666669</ele><time>2026-04-11T11:22:41.961Z</time></trkpt><trkpt lat="37.1407828" lon="15.0305631"><ele>245.33333333333331</ele><time>2026-04-11T11:23:24.862Z</time></trkpt><trkpt lat="37.1409528" lon="15.0303237"><ele>244.0</ele><time>2026-04-11T11:23:53.834Z</time></trkpt><trkpt lat="37.1408376" lon="15.0302724"><ele>243.99999999999997</ele><time>2026-04-11T11:23:54.834Z</time></trkpt><trkpt lat="37.1408839" lon="15.0303453"><ele>244.0</ele><time>2026-04-11T11:24:06.985Z</time></trkpt><trkpt lat="37.1408989" lon="15.0304313"><ele>244.0</ele><time>2026-04-11T11:24:08.961Z</time></trkpt><trkpt lat="37.1409616" lon="15.0305657"><ele>244.0</ele><time>2026-04-11T11:24:46.922Z</time></trkpt><trkpt lat="37.1410247" lon="15.030557"><ele>243.99999999999997</ele><time>2026-04-11T11:24:50.913Z</time></trkpt><trkpt lat="37.1411196" lon="15.0305724"><ele>244.0</ele><time>2026-04-11T11:25:05.849Z</time></trkpt><trkpt lat="37.1412124" lon="15.0306252"><ele>244.0</ele><time>2026-04-11T11:25:28.937Z</time></trkpt><trkpt lat="37.1412537" lon="15.0306929"><ele>243.99999999999997</ele><time>2026-04-11T11:25:38.921Z</time></trkpt><trkpt lat="37.1413635" lon="15.0307821"><ele>243.99999999999997</ele><time>2026-04-11T11:25:58.89Z</time></trkpt><trkpt lat="37.1414899" lon="15.0308927"><ele>244.0</ele><time>2026-04-11T11:26:21.873Z</time></trkpt><trkpt lat="37.1415428" lon="15.0309367"><ele>244.0</ele><time>2026-04-11T11:26:34.883Z</time></trkpt><trkpt lat="37.1416043" lon="15.0309757"><ele>243.6</ele><time>2026-04-11T11:26:43.921Z</time></trkpt><trkpt lat="37.1416428" lon="15.0311343"><ele>243.2</ele><time>2026-04-11T11:26:59.883Z</time></trkpt><trkpt lat="37.1416323" lon="15.0312151"><ele>242.79999999999998</ele><time>2026-04-11T11:27:07.945Z</time></trkpt><trkpt lat="37.1416015" lon="15.0313665"><ele>242.39999999999998</ele><time>2026-04-11T11:27:49.961Z</time></trkpt><trkpt lat="37.1415569" lon="15.0312993"><ele>242.0</ele><time>2026-04-11T11:28:56.937Z</time></trkpt><trkpt lat="37.1415234" lon="15.0312324"><ele>242.0</ele><time>2026-04-11T11:29:06.921Z</time></trkpt><trkpt lat="37.1415783" lon="15.03141"><ele>242.0</ele><time>2026-04-11T11:29:57.834Z</time></trkpt><trkpt lat="37.1414993" lon="15.0313402"><ele>242.0</ele><time>2026-04-11T11:30:02.833Z</time></trkpt><trkpt lat="37.1414309" lon="15.0313007"><ele>242.0</ele><time>2026-04-11T11:30:06.921Z</time></trkpt><trkpt lat="37.1414862" lon="15.0311695"><ele>242.0</ele><time>2026-04-11T11:30:31.881Z</time></trkpt><trkpt lat="37.1414372" lon="15.0310952"><ele>244.16666666666669</ele><time>2026-04-11T11:30:58.939Z</time></trkpt><trkpt lat="37.1413351" lon="15.0310869"><ele>246.33333333333334</ele><time>2026-04-11T11:31:34.906Z</time></trkpt><trkpt lat="37.1412697" lon="15.0310823"><ele>248.5</ele><time>2026-04-11T11:31:42.913Z</time></trkpt><trkpt lat="37.1412056" lon="15.0310869"><ele>250.66666666666669</ele><time>2026-04-11T11:31:50.921Z</time></trkpt><trkpt lat="37.1412299" lon="15.0311656"><ele>252.83333333333334</ele><time>2026-04-11T11:36:20.905Z</time></trkpt><trkpt lat="37.1413041" lon="15.031232"><ele>255.0</ele><time>2026-04-11T11:36:36.921Z</time></trkpt><trkpt lat="37.1413213" lon="15.0313081"><ele>255.0</ele><time>2026-04-11T11:36:47.945Z</time></trkpt><trkpt lat="37.1413079" lon="15.0313917"><ele>255.0</ele><time>2026-04-11T11:36:53.978Z</time></trkpt><trkpt lat="37.1412447" lon="15.0315297"><ele>255.0</ele><time>2026-04-11T11:37:13.839Z</time></trkpt><trkpt lat="37.1412088" lon="15.0316187"><ele>255.0</ele><time>2026-04-11T11:37:31.938Z</time></trkpt><trkpt lat="37.1411209" lon="15.0317146"><ele>255.0</ele><time>2026-04-11T11:37:46.913Z</time></trkpt><trkpt lat="37.1410091" lon="15.031764"><ele>258.2</ele><time>2026-04-11T11:38:08.961Z</time></trkpt><trkpt lat="37.1409326" lon="15.0318635"><ele>261.4</ele><time>2026-04-11T11:38:24.977Z</time></trkpt><trkpt lat="37.1408348" lon="15.0319061"><ele>264.6</ele><time>2026-04-11T11:39:07.925Z</time></trkpt><trkpt lat="37.1407439" lon="15.0318759"><ele>267.8</ele><time>2026-04-11T11:39:34.861Z</time></trkpt><trkpt lat="37.1406342" lon="15.0318769"><ele>271.0</ele><time>2026-04-11T11:39:52.76Z</time></trkpt><trkpt lat="37.1405713" lon="15.0319146"><ele>276.2</ele><time>2026-04-11T11:40:00.965Z</time></trkpt><trkpt lat="37.1405287" lon="15.0319751"><ele>281.40000000000003</ele><time>2026-04-11T11:40:10.949Z</time></trkpt><trkpt lat="37.1404627" lon="15.0320444"><ele>286.6</ele><time>2026-04-11T11:40:20.934Z</time></trkpt><trkpt lat="37.140382" lon="15.0321783"><ele>291.8</ele><time>2026-04-11T11:40:41.942Z</time></trkpt><trkpt lat="37.1403165" lon="15.0322838"><ele>297.0</ele><time>2026-04-11T11:40:56.918Z</time></trkpt><trkpt lat="37.1402714" lon="15.0323471"><ele>297.0</ele><time>2026-04-11T11:41:00.869Z</time></trkpt><trkpt lat="37.1402183" lon="15.0323948"><ele>297.0</ele><time>2026-04-11T11:41:05.965Z</time></trkpt><trkpt lat="37.1401198" lon="15.0324774"><ele>297.0</ele><time>2026-04-11T11:41:22.917Z</time></trkpt><trkpt lat="37.1400559" lon="15.0325056"><ele>297.0</ele><time>2026-04-11T11:41:27.909Z</time></trkpt><trkpt lat="37.1399486" lon="15.0325898"><ele>297.0</ele><time>2026-04-11T11:41:47.877Z</time></trkpt><trkpt lat="37.1398826" lon="15.0326212"><ele>297.0</ele><time>2026-04-11T11:41:51.933Z</time></trkpt><trkpt lat="37.1397994" lon="15.0326732"><ele>295.3333333333333</ele><time>2026-04-11T11:42:08.839Z</time></trkpt><trkpt lat="37.1396932" lon="15.0327158"><ele>293.6666666666667</ele><time>2026-04-11T11:42:27.918Z</time></trkpt><trkpt lat="37.1396497" lon="15.0327781"><ele>292.0</ele><time>2026-04-11T11:43:39.951Z</time></trkpt><trkpt lat="37.1396149" lon="15.0328502"><ele>290.33333333333337</ele><time>2026-04-11T11:43:48.934Z</time></trkpt><trkpt lat="37.1395501" lon="15.0328778"><ele>288.6666666666667</ele><time>2026-04-11T11:43:58.917Z</time></trkpt><trkpt lat="37.1394631" lon="15.032868"><ele>287.0</ele><time>2026-04-11T11:44:48.941Z</time></trkpt><trkpt lat="37.1393827" lon="15.0328816"><ele>287.0</ele><time>2026-04-11T11:45:05.893Z</time></trkpt><trkpt lat="37.1392867" lon="15.0328587"><ele>287.0</ele><time>2026-04-11T11:45:43.853Z</time></trkpt><trkpt lat="37.1392099" lon="15.0329144"><ele>287.0</ele><time>2026-04-11T11:46:22.958Z</time></trkpt><trkpt lat="37.1391281" lon="15.0328525"><ele>287.0</ele><time>2026-04-11T11:47:16.933Z</time></trkpt><trkpt lat="37.1391795" lon="15.0328986"><ele>287.0</ele><time>2026-04-11T11:47:40.957Z</time></trkpt><trkpt lat="37.139247" lon="15.0329266"><ele>287.0</ele><time>2026-04-11T11:48:23.909Z</time></trkpt><trkpt lat="37.1393021" lon="15.0327962"><ele>287.0</ele><time>2026-04-11T11:48:43.878Z</time></trkpt><trkpt lat="37.1393234" lon="15.0327019"><ele>287.0</ele><time>2026-04-11T11:48:44.917Z</time></trkpt><trkpt lat="37.1392844" lon="15.0327752"><ele>287.0</ele><time>2026-04-11T11:49:01.974Z</time></trkpt><trkpt lat="37.1392946" lon="15.0328615"><ele>287.0</ele><time>2026-04-11T11:49:23.918Z</time></trkpt><trkpt lat="37.1393613" lon="15.0329041"><ele>287.0</ele><time>2026-04-11T11:49:25.894Z</time></trkpt><trkpt lat="37.1394744" lon="15.0328937"><ele>287.0</ele><time>2026-04-11T11:49:46.92Z</time></trkpt><trkpt lat="37.1395464" lon="15.0328873"><ele>287.0</ele><time>2026-04-11T11:49:52.831Z</time></trkpt><trkpt lat="37.1396124" lon="15.0328045"><ele>287.0</ele><time>2026-04-11T11:50:12.901Z</time></trkpt><trkpt lat="37.1396712" lon="15.0327325"><ele>287.0</ele><time>2026-04-11T11:50:32.973Z</time></trkpt><trkpt lat="37.1397933" lon="15.0326883"><ele>287.0</ele><time>2026-04-11T11:50:56.889Z</time></trkpt><trkpt lat="37.1398564" lon="15.0326579"><ele>287.0</ele><time>2026-04-11T11:50:59.906Z</time></trkpt><trkpt lat="37.1399099" lon="15.0326107"><ele>287.0</ele><time>2026-04-11T11:51:03.962Z</time></trkpt><trkpt lat="37.1399753" lon="15.0325686"><ele>286.42857142857144</ele><time>2026-04-11T11:51:13.945Z</time></trkpt><trkpt lat="37.1400349" lon="15.0325298"><ele>285.8571428571429</ele><time>2026-04-11T11:51:21.953Z</time></trkpt><trkpt lat="37.1400894" lon="15.0324852"><ele>285.2857142857143</ele><time>2026-04-11T11:51:27.881Z</time></trkpt><trkpt lat="37.1401504" lon="15.0324462"><ele>284.7142857142857</ele><time>2026-04-11T11:51:33.898Z</time></trkpt><trkpt lat="37.1402069" lon="15.0323883"><ele>284.14285714285717</ele><time>2026-04-11T11:51:40.881Z</time></trkpt><trkpt lat="37.1402484" lon="15.0323238"><ele>283.57142857142856</ele><time>2026-04-11T11:51:45.977Z</time></trkpt><trkpt lat="37.1402903" lon="15.0322648"><ele>283.0</ele><time>2026-04-11T11:51:54.921Z</time></trkpt><trkpt lat="37.1403315" lon="15.032199"><ele>285.8</ele><time>2026-04-11T11:51:58.873Z</time></trkpt><trkpt lat="37.1403655" lon="15.0321311"><ele>288.6</ele><time>2026-04-11T11:52:04.905Z</time></trkpt><trkpt lat="37.1404223" lon="15.0320873"><ele>291.4</ele><time>2026-04-11T11:52:13.953Z</time></trkpt><trkpt lat="37.1404638" lon="15.0320195"><ele>294.2</ele><time>2026-04-11T11:52:19.903Z</time></trkpt><trkpt lat="37.1405048" lon="15.0319546"><ele>297.0</ele><time>2026-04-11T11:52:26.953Z</time></trkpt><trkpt lat="37.1406882" lon="15.0318565"><ele>291.8</ele><time>2026-04-11T11:52:49.937Z</time></trkpt><trkpt lat="37.1407908" lon="15.0319091"><ele>286.6</ele><time>2026-04-11T11:53:04.863Z</time></trkpt><trkpt lat="37.1408587" lon="15.0319276"><ele>281.40000000000003</ele><time>2026-04-11T11:53:09.842Z</time></trkpt><trkpt lat="37.140933" lon="15.0318363"><ele>276.2</ele><time>2026-04-11T11:53:31.954Z</time></trkpt><trkpt lat="37.1410327" lon="15.0317546"><ele>271.0</ele><time>2026-04-11T11:53:45.889Z</time></trkpt><trkpt lat="37.1410911" lon="15.0317143"><ele>271.0</ele><time>2026-04-11T11:53:53.897Z</time></trkpt><trkpt lat="37.1411543" lon="15.0316591"><ele>271.0</ele><time>2026-04-11T11:53:58.889Z</time></trkpt><trkpt lat="37.1411955" lon="15.031579"><ele>271.0</ele><time>2026-04-11T11:54:06.898Z</time></trkpt><trkpt lat="37.1412144" lon="15.0314898"><ele>271.0</ele><time>2026-04-11T11:54:13.827Z</time></trkpt><trkpt lat="37.1412591" lon="15.0314254"><ele>271.0</ele><time>2026-04-11T11:54:17.921Z</time></trkpt><trkpt lat="37.1412959" lon="15.0313497"><ele>271.0</ele><time>2026-04-11T11:54:23.953Z</time></trkpt><trkpt lat="37.1413148" lon="15.0312619"><ele>271.0</ele><time>2026-04-11T11:54:33.937Z</time></trkpt><trkpt lat="37.1413028" lon="15.0311834"><ele>267.8</ele><time>2026-04-11T11:54:38.929Z</time></trkpt><trkpt lat="37.1415072" lon="15.0311129"><ele>264.6</ele><time>2026-04-11T12:01:07.959Z</time></trkpt><trkpt lat="37.1415717" lon="15.0311323"><ele>261.4</ele><time>2026-04-11T12:01:16.9Z</time></trkpt><trkpt lat="37.1415429" lon="15.0312262"><ele>258.2</ele><time>2026-04-11T12:01:17.94Z</time></trkpt><trkpt lat="37.1415644" lon="15.0313048"><ele>255.0</ele><time>2026-04-11T12:01:23.98Z</time></trkpt><trkpt lat="37.141599" lon="15.0312304"><ele>255.0</ele><time>2026-04-11T12:01:31.919Z</time></trkpt><trkpt lat="37.1416337" lon="15.0311501"><ele>255.0</ele><time>2026-04-11T12:01:35.866Z</time></trkpt><trkpt lat="37.1416485" lon="15.0310665"><ele>255.0</ele><time>2026-04-11T12:01:42.9Z</time></trkpt><trkpt lat="37.1416347" lon="15.0309821"><ele>255.0</ele><time>2026-04-11T12:01:52.922Z</time></trkpt><trkpt lat="37.1415664" lon="15.0309153"><ele>255.0</ele><time>2026-04-11T12:02:09.977Z</time></trkpt><trkpt lat="37.1414536" lon="15.0308377"><ele>255.0</ele><time>2026-04-11T12:02:24.783Z</time></trkpt><trkpt lat="37.1413794" lon="15.0307531"><ele>253.16666666666666</ele><time>2026-04-11T12:02:42.946Z</time></trkpt><trkpt lat="37.1412987" lon="15.0306654"><ele>251.33333333333331</ele><time>2026-04-11T12:03:48.986Z</time></trkpt><trkpt lat="37.1412341" lon="15.0306336"><ele>249.5</ele><time>2026-04-11T12:03:55.953Z</time></trkpt><trkpt lat="37.1411724" lon="15.0305959"><ele>247.66666666666666</ele><time>2026-04-11T12:03:59.905Z</time></trkpt><trkpt lat="37.1411017" lon="15.030578"><ele>245.83333333333331</ele><time>2026-04-11T12:04:07.913Z</time></trkpt><trkpt lat="37.1410237" lon="15.0305655"><ele>244.0</ele><time>2026-04-11T12:04:14.881Z</time></trkpt><trkpt lat="37.1409385" lon="15.0305074"><ele>243.99999999999997</ele><time>2026-04-11T12:04:28.921Z</time></trkpt><trkpt lat="37.1408755" lon="15.0304945"><ele>244.0</ele><time>2026-04-11T12:04:36.93Z</time></trkpt><trkpt lat="37.1408091" lon="15.0305158"><ele>244.0</ele><time>2026-04-11T12:04:41.921Z</time></trkpt><trkpt lat="37.140724" lon="15.0305415"><ele>244.0</ele><time>2026-04-11T12:04:50.969Z</time></trkpt><trkpt lat="37.1406646" lon="15.0305072"><ele>243.99999999999997</ele><time>2026-04-11T12:05:19.881Z</time></trkpt><trkpt lat="37.1405938" lon="15.0304157"><ele>244.0</ele><time>2026-04-11T12:05:28.93Z</time></trkpt><trkpt lat="37.1405296" lon="15.0304085"><ele>244.57142857142856</ele><time>2026-04-11T12:05:33.921Z</time></trkpt><trkpt lat="37.1404331" lon="15.0303568"><ele>245.14285714285714</ele><time>2026-04-11T12:05:46.922Z</time></trkpt><trkpt lat="37.1403706" lon="15.0303355"><ele>245.71428571428572</ele><time>2026-04-11T12:06:02.937Z</time></trkpt><trkpt lat="37.1403064" lon="15.0303058"><ele>246.28571428571428</ele><time>2026-04-11T12:06:05.944Z</time></trkpt><trkpt lat="37.1402551" lon="15.0302507"><ele>246.8571428571429</ele><time>2026-04-11T12:06:09.905Z</time></trkpt><trkpt lat="37.1401977" lon="15.0301858"><ele>247.42857142857144</ele><time>2026-04-11T12:06:13.822Z</time></trkpt><trkpt lat="37.1401396" lon="15.0301548"><ele>248.0</ele><time>2026-04-11T12:06:19.889Z</time></trkpt><trkpt lat="37.1400998" lon="15.0300925"><ele>248.00000000000003</ele><time>2026-04-11T12:06:41.937Z</time></trkpt><trkpt lat="37.1400287" lon="15.0300964"><ele>248.0</ele><time>2026-04-11T12:07:19.897Z</time></trkpt><trkpt lat="37.1399891" lon="15.0299445"><ele>248.0</ele><time>2026-04-11T12:07:56.921Z</time></trkpt><trkpt lat="37.1400648" lon="15.0299712"><ele>248.0</ele><time>2026-04-11T12:08:52.978Z</time></trkpt><trkpt lat="37.14009" lon="15.0300567"><ele>248.00000000000003</ele><time>2026-04-11T12:13:21.827Z</time></trkpt><trkpt lat="37.14004" lon="15.030105"><ele>248.0</ele><time>2026-04-11T12:13:28.826Z</time></trkpt><trkpt lat="37.1400983" lon="15.030055"><ele>248.0</ele><time>2026-04-11T12:21:18.825Z</time></trkpt><trkpt lat="37.1401683" lon="15.0299917"><ele>248.0</ele><time>2026-04-11T12:41:53.824Z</time></trkpt><trkpt lat="37.1400483" lon="15.0300083"><ele>248.0</ele><time>2026-04-11T12:54:57.822Z</time></trkpt><trkpt lat="37.1399817" lon="15.0299567"><ele>248.0</ele><time>2026-04-11T12:55:51.822Z</time></trkpt><trkpt lat="37.1400317" lon="15.0298467"><ele>248.0</ele><time>2026-04-11T12:56:25.823Z</time></trkpt><trkpt lat="37.1401267" lon="15.0299333"><ele>248.00000000000003</ele><time>2026-04-11T12:57:07.823Z</time></trkpt><trkpt lat="37.1401877" lon="15.0299975"><ele>248.0</ele><time>2026-04-11T12:57:50.962Z</time></trkpt><trkpt lat="37.1401582" lon="15.0301056"><ele>248.0</ele><time>2026-04-11T12:58:46.912Z</time></trkpt><trkpt lat="37.1402143" lon="15.0301522"><ele>248.0</ele><time>2026-04-11T12:59:25.913Z</time></trkpt><trkpt lat="37.1401835" lon="15.0300753"><ele>248.00000000000003</ele><time>2026-04-11T12:59:27.889Z</time></trkpt><trkpt lat="37.1402367" lon="15.0301283"><ele>248.0</ele><time>2026-04-11T13:00:09.902Z</time></trkpt><trkpt lat="37.1401855" lon="15.029994"><ele>249.50000000000003</ele><time>2026-04-11T13:00:51.916Z</time></trkpt><trkpt lat="37.1401936" lon="15.0299137"><ele>251.0</ele><time>2026-04-11T13:01:28.942Z</time></trkpt><trkpt lat="37.1401489" lon="15.0298103"><ele>252.5</ele><time>2026-04-11T13:01:49.95Z</time></trkpt><trkpt lat="37.1400862" lon="15.0297787"><ele>254.0</ele><time>2026-04-11T13:01:58.894Z</time></trkpt><trkpt lat="37.1401695" lon="15.0298018"><ele>255.50000000000003</ele><time>2026-04-11T13:03:05.822Z</time></trkpt><trkpt lat="37.1402313" lon="15.0298804"><ele>257.0</ele><time>2026-04-11T13:03:08.821Z</time></trkpt><trkpt lat="37.1402446" lon="15.0297829"><ele>257.0</ele><time>2026-04-11T13:04:12.965Z</time></trkpt><trkpt lat="37.1401896" lon="15.0297375"><ele>257.0</ele><time>2026-04-11T13:04:16.917Z</time></trkpt><trkpt lat="37.1402007" lon="15.0296541"><ele>257.0</ele><time>2026-04-11T13:04:39.928Z</time></trkpt><trkpt lat="37.1402166" lon="15.0297351"><ele>257.0</ele><time>2026-04-11T13:04:58.933Z</time></trkpt><trkpt lat="37.1402208" lon="15.0298233"><ele>257.0</ele><time>2026-04-11T13:05:07.768Z</time></trkpt><trkpt lat="37.1401734" lon="15.029889"><ele>257.0</ele><time>2026-04-11T13:06:23.821Z</time></trkpt><trkpt lat="37.1401019" lon="15.0298398"><ele>257.0</ele><time>2026-04-11T13:07:26.917Z</time></trkpt><trkpt lat="37.140173" lon="15.0298303"><ele>257.0</ele><time>2026-04-11T13:07:32.924Z</time></trkpt><trkpt lat="37.1401146" lon="15.029783"><ele>257.0</ele><time>2026-04-11T13:08:36.867Z</time></trkpt><trkpt lat="37.1400552" lon="15.0296954"><ele>257.0</ele><time>2026-04-11T13:08:51.885Z</time></trkpt><trkpt lat="37.1400543" lon="15.0295998"><ele>257.0</ele><time>2026-04-11T13:08:59.765Z</time></trkpt><trkpt lat="37.1400748" lon="15.0295197"><ele>257.0</ele><time>2026-04-11T13:09:02.91Z</time></trkpt><trkpt lat="37.1402016" lon="15.0295095"><ele>257.0</ele><time>2026-04-11T13:09:54.91Z</time></trkpt><trkpt lat="37.1402799" lon="15.0294"><ele>257.0</ele><time>2026-04-11T13:10:10.908Z</time></trkpt><trkpt lat="37.1403397" lon="15.0293251"><ele>257.0</ele><time>2026-04-11T13:10:40.878Z</time></trkpt><trkpt lat="37.1404832" lon="15.0293208"><ele>257.0</ele><time>2026-04-11T13:11:03.861Z</time></trkpt><trkpt lat="37.1404872" lon="15.0294258"><ele>257.0</ele><time>2026-04-11T13:11:48.897Z</time></trkpt><trkpt lat="37.1404707" lon="15.0295034"><ele>257.0</ele><time>2026-04-11T13:11:58.986Z</time></trkpt><trkpt lat="37.1404742" lon="15.0296083"><ele>257.0</ele><time>2026-04-11T13:12:12.922Z</time></trkpt><trkpt lat="37.1405651" lon="15.0297248"><ele>257.0</ele><time>2026-04-11T13:13:26.967Z</time></trkpt><trkpt lat="37.1406316" lon="15.0297802"><ele>257.0</ele><time>2026-04-11T13:13:44.961Z</time></trkpt><trkpt lat="37.1406838" lon="15.0298251"><ele>257.0</ele><time>2026-04-11T13:13:48.846Z</time></trkpt><trkpt lat="37.1407452" lon="15.0298473"><ele>257.0</ele><time>2026-04-11T13:13:57.961Z</time></trkpt><trkpt lat="37.1407902" lon="15.0299053"><ele>257.0</ele><time>2026-04-11T13:14:05.969Z</time></trkpt><trkpt lat="37.1407872" lon="15.0299989"><ele>257.5</ele><time>2026-04-11T13:14:23.961Z</time></trkpt><trkpt lat="37.1408379" lon="15.0299224"><ele>258.0</ele><time>2026-04-11T13:16:32.924Z</time></trkpt><trkpt lat="37.1408578" lon="15.0300193"><ele>258.5</ele><time>2026-04-11T13:16:52.889Z</time></trkpt><trkpt lat="37.1409433" lon="15.0300674"><ele>259.0</ele><time>2026-04-11T13:16:56.945Z</time></trkpt><trkpt lat="37.1410384" lon="15.0300783"><ele>259.5</ele><time>2026-04-11T13:17:09.946Z</time></trkpt><trkpt lat="37.1411049" lon="15.0300521"><ele>260.0</ele><time>2026-04-11T13:17:16.914Z</time></trkpt><trkpt lat="37.1412261" lon="15.0300437"><ele>259.2</ele><time>2026-04-11T13:17:47.905Z</time></trkpt><trkpt lat="37.1412836" lon="15.0300012"><ele>258.4</ele><time>2026-04-11T13:18:02.904Z</time></trkpt><trkpt lat="37.1413925" lon="15.0299838"><ele>257.6</ele><time>2026-04-11T13:18:17.962Z</time></trkpt><trkpt lat="37.1414921" lon="15.0299932"><ele>256.8</ele><time>2026-04-11T13:18:37.929Z</time></trkpt><trkpt lat="37.1415981" lon="15.0299965"><ele>256.0</ele><time>2026-04-11T13:19:44.901Z</time></trkpt><trkpt lat="37.1417155" lon="15.0299719"><ele>256.0</ele><time>2026-04-11T13:19:50.933Z</time></trkpt><trkpt lat="37.141784" lon="15.0299562"><ele>256.0</ele><time>2026-04-11T13:19:58.941Z</time></trkpt><trkpt lat="37.1419313" lon="15.0299811"><ele>256.0</ele><time>2026-04-11T13:20:23.901Z</time></trkpt><trkpt lat="37.1420138" lon="15.0299429"><ele>256.0</ele><time>2026-04-11T13:20:47.863Z</time></trkpt><trkpt lat="37.1421119" lon="15.0300335"><ele>256.0</ele><time>2026-04-11T13:21:23.91Z</time></trkpt><trkpt lat="37.1421516" lon="15.0301075"><ele>256.0</ele><time>2026-04-11T13:21:27.941Z</time></trkpt><trkpt lat="37.14221" lon="15.0300764"><ele>256.0</ele><time>2026-04-11T13:21:39.925Z</time></trkpt><trkpt lat="37.1422958" lon="15.0300555"><ele>256.0</ele><time>2026-04-11T13:21:51.99Z</time></trkpt><trkpt lat="37.1423866" lon="15.030051"><ele>256.0</ele><time>2026-04-11T13:22:04.903Z</time></trkpt><trkpt lat="37.1425314" lon="15.0301186"><ele>256.0</ele><time>2026-04-11T13:22:45.965Z</time></trkpt><trkpt lat="37.1426451" lon="15.0302002"><ele>260.2</ele><time>2026-04-11T13:22:56.885Z</time></trkpt><trkpt lat="37.142753" lon="15.0302585"><ele>264.40000000000003</ele><time>2026-04-11T13:23:22.885Z</time></trkpt><trkpt lat="37.1428109" lon="15.0303277"><ele>268.6</ele><time>2026-04-11T13:23:39.942Z</time></trkpt><trkpt lat="37.1428206" lon="15.0304137"><ele>272.8</ele><time>2026-04-11T13:23:54.939Z</time></trkpt><trkpt lat="37.1428529" lon="15.0305572"><ele>277.0</ele><time>2026-04-11T13:24:18.941Z</time></trkpt><trkpt lat="37.1428633" lon="15.0306385"><ele>273.0</ele><time>2026-04-11T13:24:27.99Z</time></trkpt><trkpt lat="37.1428956" lon="15.0308242"><ele>269.0</ele><time>2026-04-11T13:24:48.893Z</time></trkpt><trkpt lat="37.1428944" lon="15.0309082"><ele>265.0</ele><time>2026-04-11T13:24:53.99Z</time></trkpt><trkpt lat="37.1429156" lon="15.0309994"><ele>261.0</ele><time>2026-04-11T13:25:15.934Z</time></trkpt><trkpt lat="37.1428913" lon="15.0310746"><ele>257.0</ele><time>2026-04-11T13:25:22.901Z</time></trkpt><trkpt lat="37.1428594" lon="15.0311731"><ele>253.0</ele><time>2026-04-11T13:25:34.864Z</time></trkpt><trkpt lat="37.1428334" lon="15.0312612"><ele>252.99999999999997</ele><time>2026-04-11T13:25:40.924Z</time></trkpt><trkpt lat="37.142795" lon="15.0313292"><ele>253.0</ele><time>2026-04-11T13:25:47.966Z</time></trkpt><trkpt lat="37.1427542" lon="15.0314016"><ele>253.0</ele><time>2026-04-11T13:26:00.861Z</time></trkpt><trkpt lat="37.1427281" lon="15.0314845"><ele>253.0</ele><time>2026-04-11T13:26:04.917Z</time></trkpt><trkpt lat="37.1426837" lon="15.0315743"><ele>252.99999999999997</ele><time>2026-04-11T13:26:15.845Z</time></trkpt><trkpt lat="37.1426483" lon="15.0316532"><ele>253.0</ele><time>2026-04-11T13:26:18.944Z</time></trkpt><trkpt lat="37.1426472" lon="15.0318114"><ele>254.5</ele><time>2026-04-11T13:26:35.909Z</time></trkpt><trkpt lat="37.1425953" lon="15.0319386"><ele>256.0</ele><time>2026-04-11T13:27:48.743Z</time></trkpt><trkpt lat="37.1425434" lon="15.0320446"><ele>257.5</ele><time>2026-04-11T13:28:11.901Z</time></trkpt><trkpt lat="37.1424655" lon="15.0321874"><ele>259.0</ele><time>2026-04-11T13:28:28.899Z</time></trkpt><trkpt lat="37.1424064" lon="15.0323052"><ele>259.0</ele><time>2026-04-11T13:28:41.884Z</time></trkpt><trkpt lat="37.1423816" lon="15.0324349"><ele>259.0</ele><time>2026-04-11T13:29:03.901Z</time></trkpt><trkpt lat="37.142336" lon="15.0325653"><ele>259.0</ele><time>2026-04-11T13:29:17.941Z</time></trkpt><trkpt lat="37.1423051" lon="15.0326365"><ele>259.0</ele><time>2026-04-11T13:29:23.928Z</time></trkpt><trkpt lat="37.1422873" lon="15.0327399"><ele>259.0</ele><time>2026-04-11T13:29:35.934Z</time></trkpt><trkpt lat="37.1422566" lon="15.0328436"><ele>258.0</ele><time>2026-04-11T13:29:51.949Z</time></trkpt><trkpt lat="37.14223" lon="15.0329159"><ele>257.0</ele><time>2026-04-11T13:29:58.917Z</time></trkpt><trkpt lat="37.1421668" lon="15.0330371"><ele>256.0</ele><time>2026-04-11T13:30:20.887Z</time></trkpt><trkpt lat="37.1421213" lon="15.0331121"><ele>255.0</ele><time>2026-04-11T13:30:24.917Z</time></trkpt><trkpt lat="37.142065" lon="15.0331662"><ele>253.99999999999997</ele><time>2026-04-11T13:30:52.893Z</time></trkpt><trkpt lat="37.1420207" lon="15.0332245"><ele>253.0</ele><time>2026-04-11T13:30:55.91Z</time></trkpt><trkpt lat="37.141935" lon="15.0332674"><ele>252.99999999999997</ele><time>2026-04-11T13:30:59.965Z</time></trkpt><trkpt lat="37.1418657" lon="15.0332976"><ele>253.0</ele><time>2026-04-11T13:31:05.911Z</time></trkpt><trkpt lat="37.1418034" lon="15.0333665"><ele>253.0</ele><time>2026-04-11T13:31:16.952Z</time></trkpt><trkpt lat="37.1417422" lon="15.0334335"><ele>253.0</ele><time>2026-04-11T13:31:22.949Z</time></trkpt><trkpt lat="37.1416428" lon="15.0335247"><ele>252.99999999999997</ele><time>2026-04-11T13:31:39.973Z</time></trkpt><trkpt lat="37.1415892" lon="15.0335878"><ele>253.0</ele><time>2026-04-11T13:31:43.957Z</time></trkpt><trkpt lat="37.1415364" lon="15.0336599"><ele>251.66666666666666</ele><time>2026-04-11T13:31:50.925Z</time></trkpt><trkpt lat="37.1414735" lon="15.0336965"><ele>250.33333333333331</ele><time>2026-04-11T13:31:56.068Z</time></trkpt><trkpt lat="37.1414138" lon="15.0337514"><ele>249.0</ele><time>2026-04-11T13:32:04.726Z</time></trkpt><trkpt lat="37.1413546" lon="15.033801"><ele>247.66666666666669</ele><time>2026-04-11T13:32:07.929Z</time></trkpt><trkpt lat="37.141271" lon="15.0339066"><ele>246.33333333333334</ele><time>2026-04-11T13:32:20.928Z</time></trkpt><trkpt lat="37.141241" lon="15.0339843"><ele>245.0</ele><time>2026-04-11T13:32:25.887Z</time></trkpt><trkpt lat="37.141199" lon="15.034052"><ele>248.50000000000003</ele><time>2026-04-11T13:32:37.933Z</time></trkpt><trkpt lat="37.1411458" lon="15.0341637"><ele>252.0</ele><time>2026-04-11T13:32:41.885Z</time></trkpt><trkpt lat="37.141105" lon="15.0342337"><ele>255.5</ele><time>2026-04-11T13:32:49.893Z</time></trkpt><trkpt lat="37.1410535" lon="15.0343004"><ele>259.0</ele><time>2026-04-11T13:32:52.909Z</time></trkpt><trkpt lat="37.141002" lon="15.0343748"><ele>262.5</ele><time>2026-04-11T13:32:57.9Z</time></trkpt><trkpt lat="37.1409687" lon="15.034509"><ele>266.0</ele><time>2026-04-11T13:33:11.855Z</time></trkpt><trkpt lat="37.1409695" lon="15.034631"><ele>266.0</ele><time>2026-04-11T13:33:19.948Z</time></trkpt><trkpt lat="37.1409952" lon="15.0347287"><ele>266.0</ele><time>2026-04-11T13:33:30.974Z</time></trkpt><trkpt lat="37.141026" lon="15.0348026"><ele>266.0</ele><time>2026-04-11T13:33:33.775Z</time></trkpt><trkpt lat="37.1410173" lon="15.0348949"><ele>266.0</ele><time>2026-04-11T13:33:37.942Z</time></trkpt><trkpt lat="37.1410076" lon="15.0349742"><ele>266.0</ele><time>2026-04-11T13:33:47.925Z</time></trkpt><trkpt lat="37.1410236" lon="15.035063"><ele>266.0</ele><time>2026-04-11T13:33:52.917Z</time></trkpt><trkpt lat="37.1410317" lon="15.035198"><ele>266.83333333333337</ele><time>2026-04-11T13:34:03.941Z</time></trkpt><trkpt lat="37.1410471" lon="15.0352859"><ele>267.6666666666667</ele><time>2026-04-11T13:34:10.909Z</time></trkpt><trkpt lat="37.1410623" lon="15.0353671"><ele>268.5</ele><time>2026-04-11T13:34:16.942Z</time></trkpt><trkpt lat="37.1410809" lon="15.035459"><ele>269.3333333333333</ele><time>2026-04-11T13:34:23.91Z</time></trkpt><trkpt lat="37.1410909" lon="15.0355529"><ele>270.16666666666663</ele><time>2026-04-11T13:34:30.927Z</time></trkpt><trkpt lat="37.1410989" lon="15.0356417"><ele>271.0</ele><time>2026-04-11T13:34:35.869Z</time></trkpt><trkpt lat="37.1411216" lon="15.0358133"><ele>271.42857142857144</ele><time>2026-04-11T13:34:50.867Z</time></trkpt><trkpt lat="37.1411211" lon="15.035894"><ele>271.8571428571429</ele><time>2026-04-11T13:34:54.902Z</time></trkpt><trkpt lat="37.1411265" lon="15.0359736"><ele>272.28571428571433</ele><time>2026-04-11T13:34:59.893Z</time></trkpt><trkpt lat="37.1411519" lon="15.0360573"><ele>272.7142857142857</ele><time>2026-04-11T13:35:08.941Z</time></trkpt><trkpt lat="37.1411841" lon="15.0361262"><ele>273.14285714285717</ele><time>2026-04-11T13:35:15.909Z</time></trkpt><trkpt lat="37.1412156" lon="15.0362114"><ele>273.5714285714286</ele><time>2026-04-11T13:35:19.861Z</time></trkpt><trkpt lat="37.1412569" lon="15.0362888"><ele>274.0</ele><time>2026-04-11T13:35:23.917Z</time></trkpt><trkpt lat="37.1412987" lon="15.0363522"><ele>274.0</ele><time>2026-04-11T13:35:28.909Z</time></trkpt><trkpt lat="37.1413285" lon="15.0364227"><ele>274.0</ele><time>2026-04-11T13:35:36.917Z</time></trkpt><trkpt lat="37.1414051" lon="15.0365605"><ele>274.0</ele><time>2026-04-11T13:35:51.894Z</time></trkpt><trkpt lat="37.1414442" lon="15.0366252"><ele>274.0</ele><time>2026-04-11T13:35:59.901Z</time></trkpt><trkpt lat="37.1414717" lon="15.0367034"><ele>274.0</ele><time>2026-04-11T13:36:04.893Z</time></trkpt><trkpt lat="37.1415087" lon="15.0367697"><ele>274.0</ele><time>2026-04-11T13:36:12.901Z</time></trkpt><trkpt lat="37.141549" lon="15.0368465"><ele>278.59999999999997</ele><time>2026-04-11T13:36:20.909Z</time></trkpt><trkpt lat="37.1415877" lon="15.0369279"><ele>283.2</ele><time>2026-04-11T13:36:27.981Z</time></trkpt><trkpt lat="37.1416328" lon="15.0370215"><ele>287.79999999999995</ele><time>2026-04-11T13:36:35.99Z</time></trkpt><trkpt lat="37.1416669" lon="15.0370929"><ele>292.4</ele><time>2026-04-11T13:36:43.893Z</time></trkpt><trkpt lat="37.1417041" lon="15.037169"><ele>297.0</ele><time>2026-04-11T13:36:49.925Z</time></trkpt><trkpt lat="37.1418019" lon="15.0373273"><ele>297.0</ele><time>2026-04-11T13:37:05.942Z</time></trkpt><trkpt lat="37.1418107" lon="15.0374069"><ele>297.0</ele><time>2026-04-11T13:37:10.934Z</time></trkpt><trkpt lat="37.1418522" lon="15.0374739"><ele>297.0</ele><time>2026-04-11T13:37:20.917Z</time></trkpt><trkpt lat="37.1419013" lon="15.0375254"><ele>297.0</ele><time>2026-04-11T13:37:29.965Z</time></trkpt><trkpt lat="37.1419592" lon="15.0376059"><ele>297.0</ele><time>2026-04-11T13:37:33.918Z</time></trkpt><trkpt lat="37.1420143" lon="15.0376528"><ele>297.0</ele><time>2026-04-11T13:38:36.941Z</time></trkpt><trkpt lat="37.1420791" lon="15.0376849"><ele>297.0</ele><time>2026-04-11T13:38:42.974Z</time></trkpt><trkpt lat="37.142005" lon="15.037635"><ele>290.0</ele><time>2026-04-11T13:44:10.815Z</time></trkpt></trkseg></trk></gpx>